Time;durP1;ratioP1;P1;durP2;ratioP2;P2;SDS_P1;SDS_P2;PMS_P1;PMS_P2;Temp;Humidity;BMP_temperature;BMP_pressure;BME280_temperature;BME280_humidity;BME280_pressure;Samples;Min_cycle;Max_cycle;Signal;HPM_P1;HPM_P2
2022/01/01 00:01:28;;;;;;;105.88;38.05;;;;;;;12.06;92.62;102321.72;5020879;28;20032;-67
2022/01/01 00:03:54;;;;;;;90.07;35.45;;;;;;;12.05;92.63;102319.91;5020332;28;20057;-67
2022/01/01 00:06:19;;;;;;;77.55;29.25;;;;;;;12.07;92.52;102319.16;5020827;28;20026;-66
2022/01/01 00:08:44;;;;;;;76.90;29.55;;;;;;;12.07;92.44;102320.88;5020915;28;20036;-66
2022/01/01 00:11:10;;;;;;;71.45;28.52;;;;;;;12.06;92.62;102327.81;5020153;28;20056;-66
2022/01/01 00:13:35;;;;;;;71.38;27.63;;;;;;;12.07;92.66;102327.00;5019298;28;20125;-66
2022/01/01 00:16:00;;;;;;;76.50;29.08;;;;;;;12.09;92.55;102322.72;5020637;28;20029;-66
2022/01/01 00:18:26;;;;;;;78.25;30.65;;;;;;;12.09;92.54;102327.94;5020564;28;20050;-66
2022/01/01 00:20:51;;;;;;;74.47;26.90;;;;;;;12.10;92.67;102321.88;5014863;28;20046;-77
2022/01/01 00:23:16;;;;;;;65.40;24.98;;;;;;;12.12;92.48;102327.19;5014721;28;20291;-76
2022/01/01 00:25:41;;;;;;;70.82;26.35;;;;;;;12.11;92.39;102333.25;5014197;28;20057;-77
2022/01/01 00:28:07;;;;;;;57.75;21.52;;;;;;;12.12;92.50;102342.84;5017740;28;20060;-77
2022/01/01 00:30:32;;;;;;;56.85;21.33;;;;;;;12.12;92.03;102332.41;5017249;28;20025;-77
2022/01/01 00:32:57;;;;;;;53.38;19.27;;;;;;;12.13;92.27;102328.97;5016409;28;20282;-77
2022/01/01 00:35:23;;;;;;;57.30;19.55;;;;;;;12.12;92.44;102337.63;5019121;28;20033;-77
2022/01/01 00:37:48;;;;;;;45.85;18.63;;;;;;;12.13;92.44;102340.31;5019597;28;20018;-77
2022/01/01 00:40:14;;;;;;;51.60;20.17;;;;;;;12.12;92.21;102341.16;5020002;28;20112;-77
2022/01/01 00:42:39;;;;;;;55.83;19.13;;;;;;;12.14;92.36;102336.88;5020258;28;20052;-77
2022/01/01 00:45:05;;;;;;;56.25;18.92;;;;;;;12.14;92.19;102326.41;5016759;28;20022;-77
2022/01/01 00:47:30;;;;;;;57.30;19.30;;;;;;;12.13;92.32;102326.34;5020243;28;20240;-77
2022/01/01 00:49:55;;;;;;;59.80;19.30;;;;;;;12.13;92.48;102328.97;5018861;28;20188;-77
2022/01/01 00:52:21;;;;;;;49.00;19.05;;;;;;;12.13;92.29;102323.75;5020190;28;20030;-77
2022/01/01 00:54:46;;;;;;;52.50;18.95;;;;;;;12.14;92.37;102320.31;5020355;28;20021;-77
2022/01/01 00:57:11;;;;;;;52.55;18.83;;;;;;;12.13;92.45;102324.63;5017134;28;20180;-77
2022/01/01 00:59:36;;;;;;;53.65;18.90;;;;;;;12.13;92.40;102340.31;5018515;28;20196;-77
2022/01/01 01:02:02;;;;;;;45.30;17.58;;;;;;;12.11;92.26;102335.88;5007785;28;20034;-77
2022/01/01 01:04:27;;;;;;;50.30;18.98;;;;;;;12.11;92.34;102338.47;5011815;28;20276;-77
2022/01/01 01:06:53;;;;;;;46.35;17.55;;;;;;;12.10;92.13;102334.06;5018908;28;20029;-77
2022/01/01 01:09:18;;;;;;;51.50;17.92;;;;;;;12.10;92.19;102336.69;5019381;28;20045;-77
2022/01/01 01:11:46;;;;;;;49.75;17.77;;;;;;;12.09;92.21;102330.56;5019408;28;20227;-77
2022/01/01 01:14:20;;;;;;;53.35;19.30;;;;;;;12.08;92.26;102334.00;5017228;28;20021;-77
2022/01/01 01:16:47;;;;;;;56.67;18.38;;;;;;;12.06;92.17;102340.88;5018739;28;20100;-78
2022/01/01 01:19:13;;;;;;;52.80;18.23;;;;;;;12.06;92.37;102333.03;5018667;28;20045;-77
2022/01/01 01:21:38;;;;;;;47.90;17.67;;;;;;;12.05;92.38;102326.06;5019078;28;20041;-77
2022/01/01 01:24:04;;;;;;;53.67;18.92;;;;;;;12.07;92.44;102339.19;5018539;28;20018;-77
2022/01/01 01:26:29;;;;;;;49.13;19.15;;;;;;;12.07;92.44;102333.94;5019160;28;20220;-77
2022/01/01 01:28:57;;;;;;;50.03;18.83;;;;;;;12.06;92.36;102346.09;5013853;28;20034;-77
2022/01/01 01:31:24;;;;;;;60.67;20.10;;;;;;;12.05;92.44;102346.03;5019073;28;20092;-77
2022/01/01 01:33:50;;;;;;;54.78;19.50;;;;;;;12.06;92.39;102334.78;5019462;28;20034;-77
2022/01/01 01:36:15;;;;;;;53.03;19.45;;;;;;;12.04;92.48;102345.16;5017215;28;20052;-77
2022/01/01 01:38:41;;;;;;;59.15;19.17;;;;;;;12.04;92.73;102349.50;5001631;28;20046;-77
2022/01/01 01:41:08;;;;;;;56.45;19.15;;;;;;;12.04;92.50;102344.28;5016206;28;20022;-77
2022/01/01 01:43:34;;;;;;;54.78;18.58;;;;;;;12.04;92.72;102346.91;5018124;28;20052;-77
2022/01/01 01:46:05;;;;;;;53.72;18.60;;;;;;;12.03;92.89;102345.97;5019824;28;20029;-77
2022/01/01 01:48:37;;;;;;;51.92;18.77;;;;;;;12.04;93.05;102353.00;5013030;28;20026;-77
2022/01/01 01:51:02;;;;;;;53.70;20.00;;;;;;;12.03;92.97;102358.16;5023366;28;20036;-77
2022/01/01 01:53:28;;;;;;;58.05;19.52;;;;;;;12.02;93.09;102361.59;5021857;28;20092;-77
2022/01/01 01:55:55;;;;;;;52.72;18.98;;;;;;;12.02;93.12;102366.81;5012102;28;20093;-77
2022/01/01 01:58:21;;;;;;;55.17;19.70;;;;;;;12.02;93.18;102377.25;5022237;28;20108;-77
2022/01/01 02:03:30;;;;;;;55.72;19.15;;;;;;;12.02;93.32;102372.03;5016514;28;20032;-78
2022/01/01 02:05:57;;;;;;;52.88;19.02;;;;;;;12.01;93.40;102368.53;5023064;28;20294;-77
2022/01/01 02:08:24;;;;;;;54.28;18.83;;;;;;;11.99;93.54;102358.03;5022278;28;20314;-78
2022/01/01 02:10:52;;;;;;;51.78;19.20;;;;;;;12.00;93.37;102365.03;5036466;28;20057;-77
2022/01/01 02:14:00;;;;;;;58.75;18.52;;;;;;;12.02;93.51;102366.81;5022480;28;20123;-78
2022/01/01 02:18:48;;;;;;;49.33;17.52;;;;;;;12.00;93.30;102365.03;5021713;28;20029;-77
2022/01/01 02:21:14;;;;;;;48.22;17.85;;;;;;;12.00;93.64;102364.13;5022180;28;20049;-78
2022/01/01 02:23:44;;;;;;;46.13;17.25;;;;;;;12.00;93.54;102351.97;5022135;28;20268;-78
2022/01/01 02:26:12;;;;;;;49.13;18.35;;;;;;;12.01;93.50;102350.25;5021427;28;20264;-77
2022/01/01 02:28:58;;;;;;;47.83;18.60;;;;;;;12.00;93.44;102357.19;5019367;28;20025;-78
2022/01/01 02:31:23;;;;;;;51.25;18.95;;;;;;;11.99;93.51;102347.59;5021488;28;20058;-78
2022/01/01 02:33:48;;;;;;;45.63;19.20;;;;;;;12.00;93.40;102351.97;5016207;28;20048;-78
2022/01/01 02:36:14;;;;;;;51.88;19.65;;;;;;;12.01;93.51;102352.88;5021388;28;20033;-78
2022/01/01 02:38:39;;;;;;;49.53;20.15;;;;;;;12.01;93.45;102358.09;5020720;28;20034;-78
2022/01/01 02:41:04;;;;;;;53.20;20.08;;;;;;;11.99;93.26;102352.81;5042133;28;20093;-78
2022/01/01 02:43:31;;;;;;;50.92;20.10;;;;;;;12.01;93.56;102350.25;5013659;28;20319;-78
2022/01/01 02:45:57;;;;;;;50.22;19.95;;;;;;;12.02;93.21;102364.19;5020753;28;20320;-77
2022/01/01 02:48:23;;;;;;;51.95;20.00;;;;;;;12.02;93.07;102362.50;5021613;28;20030;-77
2022/01/01 02:50:50;;;;;;;50.50;20.25;;;;;;;12.02;93.13;102354.66;5021541;28;20057;-77
2022/01/01 02:53:16;;;;;;;49.35;20.52;;;;;;;12.01;93.22;102342.41;5021743;28;20276;-77
2022/01/01 02:55:43;;;;;;;50.78;19.95;;;;;;;12.01;93.14;102339.81;5021751;28;20088;-77
2022/01/01 02:58:09;;;;;;;52.08;20.80;;;;;;;12.02;93.30;102340.69;5020497;28;20098;-78
2022/01/01 03:00:35;;;;;;;54.03;21.00;;;;;;;12.03;93.07;102324.19;5021290;28;20033;-77
2022/01/01 03:03:00;;;;;;;50.40;20.55;;;;;;;12.02;92.92;102320.72;5021507;28;20028;-77
2022/01/01 03:05:27;;;;;;;54.85;20.23;;;;;;;12.03;92.82;102322.47;5021142;28;20315;-77
2022/01/01 03:07:52;;;;;;;51.83;21.10;;;;;;;12.03;92.80;102324.19;5021312;28;20065;-77
2022/01/01 03:10:17;;;;;;;54.03;21.20;;;;;;;12.02;92.81;102327.63;5019850;28;20022;-77
2022/01/01 03:12:43;;;;;;;50.80;20.77;;;;;;;12.03;92.96;102324.19;5018909;28;20022;-78
2022/01/01 03:15:08;;;;;;;52.42;21.42;;;;;;;12.02;92.77;102339.00;5020968;28;20108;-78
2022/01/01 03:17:33;;;;;;;50.17;21.10;;;;;;;12.02;92.82;102331.16;5020771;28;20022;-77
2022/01/01 03:19:59;;;;;;;51.65;20.65;;;;;;;12.03;92.74;102327.69;5020161;28;20021;-77
2022/01/01 03:22:24;;;;;;;50.85;21.88;;;;;;;12.02;92.80;102330.25;5011023;28;20033;-78
2022/01/01 03:24:49;;;;;;;51.75;20.45;;;;;;;12.00;92.68;102327.56;5021415;28;20320;-78
2022/01/01 03:27:15;;;;;;;48.90;19.88;;;;;;;12.02;92.41;102319.78;5020721;28;20046;-77
2022/01/01 03:29:40;;;;;;;51.10;20.35;;;;;;;12.02;92.57;102325.94;5018592;28;20264;-78
2022/01/01 03:32:06;;;;;;;49.83;19.05;;;;;;;12.00;92.53;102323.22;5020504;28;20033;-78
2022/01/01 03:34:31;;;;;;;48.00;19.33;;;;;;;12.01;92.51;102316.31;5020157;28;20038;-78
2022/01/01 03:36:57;;;;;;;50.47;19.45;;;;;;;12.00;92.61;102318.00;5020239;28;20029;-78
2022/01/01 03:39:22;;;;;;;46.22;19.33;;;;;;;12.00;92.58;102320.63;5020311;28;20041;-78
2022/01/01 03:41:48;;;;;;;49.25;18.88;;;;;;;12.01;92.55;102316.31;5021242;28;20029;-77
2022/01/01 03:44:13;;;;;;;51.80;18.70;;;;;;;12.00;92.47;102318.00;5019925;28;20042;-78
2022/01/01 03:46:39;;;;;;;56.38;19.73;;;;;;;12.00;92.14;102323.22;5019197;28;20068;-78
2022/01/01 03:49:04;;;;;;;45.00;18.20;;;;;;;11.99;92.10;102310.09;5009299;28;20069;-77
2022/01/01 03:51:29;;;;;;;45.03;17.77;;;;;;;11.99;92.26;102310.09;5019439;28;20022;-78
2022/01/01 03:53:55;;;;;;;45.90;18.02;;;;;;;11.96;92.12;102313.50;5017587;28;20280;-78
2022/01/01 03:56:20;;;;;;;40.25;16.52;;;;;;;11.95;92.37;102309.09;5018206;28;20200;-78
2022/01/01 03:58:45;;;;;;;44.88;17.33;;;;;;;11.95;92.19;102316.06;5017833;28;20076;-77
2022/01/01 04:01:11;;;;;;;46.03;17.15;;;;;;;11.96;91.98;102304.75;5020028;28;20084;-77
2022/01/01 04:03:36;;;;;;;37.75;16.33;;;;;;;11.96;92.01;102310.91;5020229;28;20286;-77
2022/01/01 04:06:02;;;;;;;45.60;16.65;;;;;;;11.94;91.99;102309.91;5016077;28;20045;-77
2022/01/01 04:08:29;;;;;;;39.08;16.50;;;;;;;11.95;91.91;102318.66;5019833;28;20529;-77
2022/01/01 04:10:55;;;;;;;40.60;15.50;;;;;;;11.96;91.80;102317.81;5019155;28;20041;-77
2022/01/01 04:13:20;;;;;;;37.60;15.23;;;;;;;11.95;91.61;102324.78;5008532;28;20044;-78
2022/01/01 04:15:45;;;;;;;40.90;15.07;;;;;;;11.96;91.63;102309.97;5019992;28;20296;-77
2022/01/01 04:18:13;;;;;;;40.78;14.88;;;;;;;11.96;91.66;102304.75;5020270;28;20041;-77
2022/01/01 04:20:41;;;;;;;37.67;14.32;;;;;;;11.95;91.55;102313.44;5019943;28;20174;-78
2022/01/01 04:23:09;;;;;;;39.07;14.37;;;;;;;11.96;91.36;102313.50;5019577;28;20037;-77
2022/01/01 04:25:35;;;;;;;36.20;14.35;;;;;;;11.96;91.53;102304.75;5020400;28;20284;-77
2022/01/01 04:28:00;;;;;;;34.53;13.80;;;;;;;11.95;90.74;102309.09;5019477;28;20045;-78
2022/01/01 04:30:28;;;;;;;34.08;13.38;;;;;;;11.95;91.26;102305.59;5020013;28;20024;-78
2022/01/01 04:32:54;;;;;;;37.05;12.75;;;;;;;11.94;91.22;102307.31;5019310;28;20037;-78
2022/01/01 04:35:19;;;;;;;36.38;13.02;;;;;;;11.96;90.86;102318.72;5020000;28;20036;-77
2022/01/01 04:37:45;;;;;;;29.63;12.30;;;;;;;11.97;91.04;102317.88;5012697;28;20025;-77
2022/01/01 04:40:10;;;;;;;33.67;12.45;;;;;;;11.97;91.00;102312.66;5018241;28;20014;-78
2022/01/01 04:42:36;;;;;;;34.95;12.23;;;;;;;11.98;90.66;102324.91;5020167;28;20026;-78
2022/01/01 04:45:02;;;;;;;31.55;12.27;;;;;;;11.99;90.53;102321.47;5020135;28;20022;-78
2022/01/01 04:47:27;;;;;;;31.42;12.25;;;;;;;12.02;90.62;102320.72;5019886;28;20053;-78
2022/01/01 04:49:53;;;;;;;37.92;12.27;;;;;;;12.03;90.34;102329.44;5020042;28;20026;-78
2022/01/01 04:52:18;;;;;;;32.30;12.02;;;;;;;12.04;90.54;102331.22;5020158;28;20029;-78
2022/01/01 04:54:44;;;;;;;28.80;12.27;;;;;;;12.04;90.15;102328.59;5019791;28;20264;-77
2022/01/01 04:57:11;;;;;;;32.97;12.25;;;;;;;12.04;90.24;102331.22;5019511;28;20032;-78
2022/01/01 04:59:37;;;;;;;31.95;14.05;;;;;;;12.03;90.42;102329.44;5019391;28;20030;-77
2022/01/01 05:02:03;;;;;;;29.75;12.35;;;;;;;12.02;90.46;102320.72;5019766;28;20026;-77
2022/01/01 05:04:29;;;;;;;36.47;13.30;;;;;;;12.03;90.12;102332.03;5018346;28;20050;-78
2022/01/01 05:06:54;;;;;;;36.90;13.02;;;;;;;12.03;90.11;102332.03;5020196;28;20030;-77
2022/01/01 05:09:20;;;;;;;27.65;12.00;;;;;;;12.02;89.95;102338.09;5019187;28;20087;-77
2022/01/01 05:11:49;;;;;;;32.92;12.13;;;;;;;12.02;90.13;102343.31;5018803;28;20095;-78
2022/01/01 05:14:15;;;;;;;29.45;12.38;;;;;;;12.02;90.09;102338.09;5044331;28;20177;-78
2022/01/01 05:16:41;;;;;;;33.90;12.80;;;;;;;12.00;90.04;102338.91;5018981;28;20034;-77
2022/01/01 05:19:07;;;;;;;32.50;12.30;;;;;;;12.02;89.93;102344.22;5019337;28;20030;-77
2022/01/01 05:21:35;;;;;;;37.95;12.93;;;;;;;12.01;90.10;102342.41;5019994;28;20056;-77
2022/01/01 05:24:02;;;;;;;35.50;12.55;;;;;;;11.99;89.92;102352.81;5022980;28;20030;-77
2022/01/01 05:26:27;;;;;;;30.42;11.93;;;;;;;12.00;90.00;102343.25;5023792;28;20026;-78
2022/01/01 05:28:52;;;;;;;30.90;12.18;;;;;;;12.00;89.88;102345.84;5021419;28;20089;-77
2022/01/01 05:31:19;;;;;;;30.90;12.23;;;;;;;11.99;90.07;102342.38;5023861;28;20104;-78
2022/01/01 05:33:49;;;;;;;31.48;12.57;;;;;;;11.98;90.00;102344.91;5021382;28;20094;-78
2022/01/01 05:36:14;;;;;;;31.50;11.68;;;;;;;11.98;89.79;102353.63;5047730;28;20029;-78
2022/01/01 05:38:41;;;;;;;37.00;12.15;;;;;;;11.97;90.02;102341.38;5022844;28;20037;-78
2022/01/01 05:41:07;;;;;;;35.72;12.73;;;;;;;11.97;90.11;102340.50;5023221;28;20030;-78
2022/01/01 05:43:32;;;;;;;29.00;12.70;;;;;;;11.95;89.94;102337.84;5022502;28;20330;-77
2022/01/01 05:45:57;;;;;;;31.50;12.02;;;;;;;11.96;90.04;102341.31;5022894;28;20025;-78
2022/01/01 05:48:23;;;;;;;34.45;12.30;;;;;;;11.96;89.74;102349.16;5022935;28;20076;-78
2022/01/01 05:50:48;;;;;;;30.63;11.75;;;;;;;11.95;89.83;102350.91;5021937;28;20073;-78
2022/01/01 05:53:15;;;;;;;32.33;11.55;;;;;;;11.95;89.87;102344.78;5019909;28;20173;-77
2022/01/01 05:55:40;;;;;;;35.05;12.05;;;;;;;11.96;89.57;102334.41;5013965;28;20033;-78
2022/01/01 05:58:05;;;;;;;31.75;11.60;;;;;;;11.95;89.64;102339.56;5018600;28;20033;-77
2022/01/01 06:00:32;;;;;;;29.70;10.43;;;;;;;11.93;89.76;102335.94;5015665;28;20240;-77
2022/01/01 06:02:58;;;;;;;27.45;10.70;;;;;;;11.93;89.71;102341.16;5017352;28;20038;-77
2022/01/01 06:05:23;;;;;;;30.67;12.05;;;;;;;11.94;89.41;102337.78;5010659;28;20046;-77
2022/01/01 06:07:49;;;;;;;28.73;10.52;;;;;;;11.94;89.21;102336.03;5016903;28;20040;-78
2022/01/01 06:10:14;;;;;;;30.77;10.45;;;;;;;11.92;89.61;102324.63;5014370;28;20030;-78
2022/01/01 06:12:40;;;;;;;31.13;11.02;;;;;;;11.94;89.28;102325.59;5006351;28;20042;-77
2022/01/01 06:15:06;;;;;;;32.50;11.15;;;;;;;11.93;89.31;102322.88;5014294;28;20022;-78
2022/01/01 06:17:31;;;;;;;30.08;11.20;;;;;;;11.93;89.27;102321.19;5011509;28;20030;-77
2022/01/01 06:19:57;;;;;;;31.30;9.90;;;;;;;11.89;89.04;102313.13;5017900;28;21345;-77
2022/01/01 06:22:22;;;;;;;31.77;10.75;;;;;;;11.87;88.81;102323.50;5014322;28;20022;-78
2022/01/01 06:24:47;;;;;;;27.38;9.80;;;;;;;11.84;88.91;102318.16;5021244;28;20215;-77
2022/01/01 06:27:13;;;;;;;28.83;10.70;;;;;;;11.82;89.03;102317.22;5022529;28;20022;-77
2022/01/01 06:29:39;;;;;;;24.83;9.57;;;;;;;11.77;88.72;102324.84;5015682;28;20146;-77
2022/01/01 06:32:04;;;;;;;27.85;10.77;;;;;;;11.74;88.68;102329.06;5013082;28;20493;-78
2022/01/01 06:34:29;;;;;;;27.58;10.70;;;;;;;11.71;88.90;102329.81;5014224;28;20104;-77
2022/01/01 06:36:55;;;;;;;25.55;10.13;;;;;;;11.70;88.71;102330.63;5017261;28;20022;-77
2022/01/01 06:39:20;;;;;;;23.38;9.50;;;;;;;11.66;88.74;102327.00;5014623;28;20200;-77
2022/01/01 06:41:45;;;;;;;24.80;9.27;;;;;;;11.66;88.71;102332.22;5009730;28;20207;-77
2022/01/01 06:44:11;;;;;;;24.40;9.25;;;;;;;11.63;88.84;102333.81;5012396;28;20417;-77
2022/01/01 06:46:36;;;;;;;26.15;9.32;;;;;;;11.62;88.69;102327.69;5010778;28;20045;-77
2022/01/01 06:49:02;;;;;;;25.63;9.27;;;;;;;11.62;88.86;102342.47;5013808;28;20207;-77
2022/01/01 06:51:27;;;;;;;23.95;9.15;;;;;;;11.60;88.76;102333.66;5010208;28;20022;-77
2022/01/01 06:53:52;;;;;;;27.85;9.70;;;;;;;11.57;88.32;102329.22;5019222;28;20096;-77
2022/01/01 06:56:18;;;;;;;24.02;9.35;;;;;;;11.57;88.80;102330.94;5014957;28;20046;-77
2022/01/01 06:58:44;;;;;;;31.92;9.73;;;;;;;11.55;89.08;102330.84;5007075;28;20022;-77
2022/01/01 07:01:10;;;;;;;30.65;9.73;;;;;;;11.55;89.21;102332.59;5014208;28;20054;-77
2022/01/01 07:03:35;;;;;;;26.92;9.43;;;;;;;11.54;89.11;102338.63;5011986;28;20022;-77
2022/01/01 07:06:01;;;;;;;27.90;9.20;;;;;;;11.54;88.93;102341.25;5015613;28;20041;-78
2022/01/01 07:08:26;;;;;;;22.77;8.52;;;;;;;11.56;88.83;102339.59;5013472;28;20995;-77
2022/01/01 07:10:52;;;;;;;19.48;8.93;;;;;;;11.57;88.85;102352.72;5015330;28;20052;-77
2022/01/01 07:13:18;;;;;;;21.02;8.57;;;;;;;11.57;88.87;102351.81;5015240;28;20044;-77
2022/01/01 07:15:43;;;;;;;25.23;8.73;;;;;;;11.57;89.12;102359.66;5016467;28;20318;-78
2022/01/01 07:18:09;;;;;;;20.58;9.18;;;;;;;11.56;89.00;102358.75;5016789;28;20026;-77
2022/01/01 07:20:35;;;;;;;25.13;9.27;;;;;;;11.55;89.06;102367.41;5016554;28;20038;-77
2022/01/01 07:23:00;;;;;;;22.38;8.98;;;;;;;11.56;88.72;102361.38;5016687;28;20033;-77
2022/01/01 07:25:26;;;;;;;22.08;9.23;;;;;;;11.57;88.81;102349.19;5017749;28;20136;-77
2022/01/01 07:27:51;;;;;;;28.92;9.02;;;;;;;11.57;89.01;102354.41;5013436;28;20038;-77
2022/01/01 07:30:16;;;;;;;27.25;9.20;;;;;;;11.55;88.57;102362.19;5018961;28;20032;-77
2022/01/01 07:32:44;;;;;;;23.50;8.52;;;;;;;11.54;88.91;102368.22;5013320;28;20122;-77
2022/01/01 07:35:11;;;;;;;23.67;8.45;;;;;;;11.54;88.48;102373.44;5016519;28;20276;-77
2022/01/01 07:37:37;;;;;;;20.10;8.98;;;;;;;11.53;88.48;102371.69;5013145;28;20046;-78
2022/01/01 07:40:08;;;;;;;24.17;8.63;;;;;;;11.54;88.70;102369.94;5016806;28;20030;-78
2022/01/01 07:42:33;;;;;;;26.45;9.10;;;;;;;11.52;88.47;102377.72;5012625;28;20470;-78
2022/01/01 07:44:59;;;;;;;25.15;8.45;;;;;;;11.54;88.23;102377.78;5017605;28;20041;-78
2022/01/01 07:47:25;;;;;;;24.70;8.65;;;;;;;11.53;88.44;102379.50;5038150;28;20034;-77
2022/01/01 07:49:50;;;;;;;24.88;8.57;;;;;;;11.54;88.54;102388.22;5015366;28;20135;-78
2022/01/01 07:52:16;;;;;;;19.75;8.30;;;;;;;11.52;88.20;102380.34;5009620;28;20042;-78
2022/01/01 07:54:41;;;;;;;21.35;8.50;;;;;;;11.51;88.50;102378.53;5011557;28;20072;-78
2022/01/01 07:57:06;;;;;;;24.17;8.95;;;;;;;11.53;88.06;102382.13;5008007;28;20022;-78
2022/01/01 07:59:31;;;;;;;23.48;8.38;;;;;;;11.52;88.26;102385.56;5035083;28;20315;-78
2022/01/01 08:01:57;;;;;;;21.90;8.10;;;;;;;11.51;88.76;102388.97;5008351;28;20042;-78
2022/01/01 08:04:22;;;;;;;21.65;8.10;;;;;;;11.52;88.46;102396.00;5010509;28;20062;-77
2022/01/01 08:06:47;;;;;;;23.48;7.88;;;;;;;11.51;88.71;102383.75;5029269;28;20253;-78
2022/01/01 08:09:14;;;;;;;22.35;8.00;;;;;;;11.51;88.24;102386.38;5008249;28;20029;-78
2022/01/01 08:11:40;;;;;;;21.85;8.05;;;;;;;11.52;88.01;102390.78;5014523;28;20277;-78
2022/01/01 08:14:05;;;;;;;27.88;8.52;;;;;;;11.52;88.13;102384.66;5007028;28;20094;-78
2022/01/01 08:16:30;;;;;;;20.17;8.57;;;;;;;11.53;87.96;102387.34;5011187;28;20154;-78
2022/01/01 08:18:56;;;;;;;19.70;8.38;;;;;;;11.54;88.43;102393.44;5015341;28;20025;-78
2022/01/01 08:21:21;;;;;;;21.33;8.10;;;;;;;11.53;88.07;102392.56;5012276;28;20037;-78
2022/01/01 08:23:47;;;;;;;26.80;9.75;;;;;;;11.53;88.01;102392.56;5008545;28;20180;-78
2022/01/01 08:26:12;;;;;;;29.50;9.63;;;;;;;11.55;88.22;102393.50;5007277;28;20090;-78
2022/01/01 08:28:38;;;;;;;20.80;9.05;;;;;;;11.55;88.04;102390.91;5010998;28;20048;-78
2022/01/01 08:31:04;;;;;;;24.80;9.38;;;;;;;11.55;88.13;102393.50;5011788;28;20030;-78
2022/01/01 08:33:29;;;;;;;21.45;8.60;;;;;;;11.56;88.03;102397.03;5009943;28;20096;-78
2022/01/01 08:35:55;;;;;;;26.40;9.80;;;;;;;11.57;88.21;102398.81;5017623;28;20025;-78
2022/01/01 08:38:20;;;;;;;25.08;9.90;;;;;;;11.55;87.99;102393.50;5013892;28;20026;-78
2022/01/01 08:40:46;;;;;;;28.73;10.73;;;;;;;11.56;88.00;102387.47;5016345;28;20172;-77
2022/01/01 08:43:11;;;;;;;27.80;10.45;;;;;;;11.56;88.02;102387.47;5008440;28;20037;-78
2022/01/01 08:45:38;;;;;;;25.92;9.80;;;;;;;11.55;87.74;102388.28;5011821;28;20036;-78
2022/01/01 08:48:05;;;;;;;23.48;10.40;;;;;;;11.55;87.72;102385.69;5007900;28;20069;-77
2022/01/01 08:50:30;;;;;;;33.22;11.13;;;;;;;11.56;88.16;102392.69;5013375;28;20115;-77
2022/01/01 08:52:57;;;;;;;25.25;9.70;;;;;;;11.56;87.79;102395.31;5008857;28;20038;-77
2022/01/01 08:55:23;;;;;;;29.10;10.15;;;;;;;11.56;88.03;102392.69;5007785;28;20050;-78
2022/01/01 08:57:48;;;;;;;23.58;9.93;;;;;;;11.57;87.70;102404.94;5013396;28;20050;-78
2022/01/01 09:00:14;;;;;;;22.40;9.63;;;;;;;11.58;88.13;102398.00;5033424;28;20041;-77
2022/01/01 09:02:40;;;;;;;29.48;10.20;;;;;;;11.56;87.89;102384.00;5022671;28;20109;-77
2022/01/01 09:05:05;;;;;;;29.40;10.05;;;;;;;11.56;87.68;102387.47;5018376;28;20038;-78
2022/01/01 09:07:31;;;;;;;21.63;9.57;;;;;;;11.55;87.63;102380.47;5021306;28;20029;-78
2022/01/01 09:09:57;;;;;;;27.00;10.02;;;;;;;11.56;87.92;102384.88;5019895;28;20025;-78
2022/01/01 09:12:24;;;;;;;26.00;10.20;;;;;;;11.56;87.95;102378.75;5016067;28;20120;-78
2022/01/01 09:14:49;;;;;;;29.50;9.60;;;;;;;11.56;87.91;102382.25;5023636;28;20033;-78
2022/01/01 09:17:14;;;;;;;25.23;10.25;;;;;;;11.57;88.07;102380.53;5023571;28;20018;-78
2022/01/01 09:19:40;;;;;;;26.52;9.93;;;;;;;11.55;87.95;102375.25;5033602;28;20026;-78
2022/01/01 09:22:05;;;;;;;21.02;10.30;;;;;;;11.55;87.68;102384.81;5017154;28;20025;-78
2022/01/01 09:24:31;;;;;;;27.58;11.05;;;;;;;11.54;87.81;102378.66;5012928;28;20080;-78
2022/01/01 09:26:56;;;;;;;23.60;10.32;;;;;;;11.55;87.94;102366.53;5023153;28;20037;-78
2022/01/01 09:29:22;;;;;;;24.35;9.63;;;;;;;11.55;88.13;102369.13;5023214;28;20288;-77
2022/01/01 09:31:47;;;;;;;25.77;10.35;;;;;;;11.56;88.00;102368.31;5022872;28;20029;-77
2022/01/01 09:34:12;;;;;;;27.13;10.25;;;;;;;11.57;87.92;102376.22;5016824;28;20265;-78
2022/01/01 09:36:38;;;;;;;25.80;10.55;;;;;;;11.57;87.86;102363.16;5013800;28;20288;-78
2022/01/01 09:39:05;;;;;;;24.50;10.52;;;;;;;11.60;88.17;102376.34;5018038;28;20029;-78
2022/01/01 09:41:31;;;;;;;29.63;10.60;;;;;;;11.60;87.96;102383.28;5021715;28;20376;-77
2022/01/01 09:43:58;;;;;;;23.38;10.35;;;;;;;11.61;88.00;102374.63;5018001;28;20042;-77
2022/01/01 09:46:26;;;;;;;29.38;10.80;;;;;;;11.61;87.89;102375.50;5014771;28;20022;-76
2022/01/01 09:48:52;;;;;;;24.02;10.57;;;;;;;11.63;87.79;102366.03;5018109;28;20026;-66
2022/01/01 09:51:18;;;;;;;29.95;10.93;;;;;;;11.62;87.67;102364.25;5021142;28;20042;-66
2022/01/01 09:53:44;;;;;;;25.92;10.23;;;;;;;11.61;87.55;102357.22;5019467;28;20088;-66
2022/01/01 09:56:09;;;;;;;26.90;10.43;;;;;;;11.61;87.79;102358.97;5022231;28;20026;-66
2022/01/01 09:58:37;;;;;;;24.88;10.82;;;;;;;11.60;87.66;102359.78;5021434;28;20097;-66
2022/01/01 10:01:06;;;;;;;30.35;10.13;;;;;;;11.60;87.85;102358.06;5022708;28;20196;-66
2022/01/01 10:03:37;;;;;;;25.23;10.97;;;;;;;11.59;87.84;102361.50;5021333;28;20022;-66
2022/01/01 10:06:05;;;;;;;23.90;10.68;;;;;;;11.59;87.83;102353.66;5018920;28;20285;-66
2022/01/01 10:08:31;;;;;;;25.73;10.50;;;;;;;11.59;87.71;102351.06;5017131;28;20300;-66
2022/01/01 10:10:57;;;;;;;22.85;9.95;;;;;;;11.60;87.57;102351.94;5021872;28;20049;-67
2022/01/01 10:13:27;;;;;;;28.95;10.38;;;;;;;11.62;87.87;102347.69;5021188;28;20184;-66
2022/01/01 10:15:55;;;;;;;26.80;10.90;;;;;;;11.62;87.83;102340.75;5022515;28;20223;-67
2022/01/01 10:18:26;;;;;;;27.60;10.90;;;;;;;11.62;88.04;102330.31;5017920;28;20032;-66
2022/01/01 10:21:02;;;;;;;26.25;10.90;;;;;;;11.64;87.85;102328.66;5016246;28;20030;-67
2022/01/01 10:23:31;;;;;;;28.75;10.93;;;;;;;11.65;87.96;102325.22;5021612;28;20088;-66
2022/01/01 10:28:55;;;;;;;24.92;10.27;;;;;;;11.68;87.81;102318.34;5021756;28;20049;-66
2022/01/01 10:31:20;;;;;;;24.50;10.75;;;;;;;11.69;87.64;102318.41;5021284;28;20025;-66
2022/01/01 10:33:46;;;;;;;25.20;10.35;;;;;;;11.69;87.67;102312.28;5022364;28;20037;-66
2022/01/01 10:36:13;;;;;;;23.58;10.52;;;;;;;11.69;87.87;102320.13;5021487;28;20033;-66
2022/01/01 10:38:39;;;;;;;27.73;11.02;;;;;;;11.69;87.92;102310.59;5020701;28;20203;-66
2022/01/01 10:41:07;;;;;;;25.52;10.48;;;;;;;11.71;87.96;102308.03;5022027;28;20054;-66
2022/01/01 10:43:42;;;;;;;28.42;10.88;;;;;;;11.73;87.69;102308.97;5018798;28;20061;-66
2022/01/01 10:46:14;;;;;;;23.63;9.60;;;;;;;11.76;88.08;102304.78;5022560;28;20232;-66
2022/01/01 10:48:53;;;;;;;27.63;11.05;;;;;;;11.80;87.96;102303.19;5008374;28;20049;-66
2022/01/01 10:51:19;;;;;;;26.15;10.35;;;;;;;11.85;87.62;102296.44;5018479;28;20261;-66
2022/01/01 10:53:44;;;;;;;23.08;9.60;;;;;;;11.87;87.81;102286.94;5021903;28;20167;-67
2022/01/01 10:56:17;;;;;;;23.67;9.57;;;;;;;11.91;87.84;102291.47;5021681;28;20034;-66
2022/01/01 10:58:43;;;;;;;23.30;9.98;;;;;;;11.93;87.81;102287.22;5020721;28;20049;-66
2022/01/01 11:01:08;;;;;;;24.02;9.82;;;;;;;11.96;87.47;102271.72;5021588;28;20021;-66
2022/01/01 11:03:43;;;;;;;28.30;9.57;;;;;;;11.97;87.44;102269.97;5021537;28;20300;-67
2022/01/01 11:06:12;;;;;;;23.17;9.73;;;;;;;11.99;87.11;102291.81;5021483;28;20251;-67
2022/01/01 11:08:41;;;;;;;24.27;9.43;;;;;;;11.99;86.96;102282.28;5021115;28;20048;-66
2022/01/01 11:11:07;;;;;;;20.42;9.15;;;;;;;11.99;87.12;102278.75;5019974;28;20264;-66
2022/01/01 11:13:34;;;;;;;22.42;9.45;;;;;;;12.00;87.49;102280.53;5021241;28;20053;-66
2022/01/01 11:15:59;;;;;;;22.85;8.88;;;;;;;12.00;87.32;102286.66;5028137;28;20095;-69